Flight Number: EUR1352 Duration: 1:30
Departure: Venice Marco Polo (LIPZ) at 18:30 Distance: 440 Nm
Arrival: Palermo Airport (LICJ) at 20:00 Equipment: B737

Weather Information
Venezia / Tessera, Italy (LIPZ) 45-30N 012-20E 6M May 22, 2018 - 03:20 PM EDT / 2018.05.22 1920 UTC
Wind: Variable at 1 MPH (1 KT):0
Visibility: greater than 7 mile(s):0
Sky conditions: partly cloudy Temperature: 66 F (19 C) Dew Point: 60 F (16 C) Relative Humidity: 82% Pressure (altimeter): 29.97 in. Hg (1015 hPa)
ob: LIPZ 221920Z VRB01KT 9999 SCT070 19/16 Q1015 NOSIG cycle: 19
Sunrise: 03:35 Sunset: 18:38 (UTC)

Palermo / Punta Raisi, Italy (LICJ) 38-11N 013-06E 21M May 22, 2018 - 03:20 PM EDT / 2018.05.22 1920 UTC
Wind: from the NNE (020 degrees) at 16 MPH (14 KT):0
Visibility: 5 mile(s):0
Sky conditions: partly cloudy Temperature: 66 F (19 C) Dew Point: 64 F (18 C) Relative Humidity: 93% Pressure (altimeter): 29.94 in. Hg (1014 hPa)
ob: LICJ 221920Z 02014KT 9000 SCT008 SCT016 19/18 Q1014 cycle: 19
Sunrise: 03:54 Sunset: 18:14 (UTC)

TAF:2018/05/22 18:21 TAF LICJ 221700Z 2218/2318 VRB06KT 9999 SCT030 TEMPO 2218/2221 SHRA BECMG 2308/2310 27010KT BECMG 2316/2318 VRB05KT

Previous Pireps for this route
Date Aircraft Flight time Fuel used Landing rate On time
2013-04-01B73701.357762-275Yes
2013-04-04B7371.4110800-319No
2013-04-08B7371.359500-257No
2013-07-12B7371.40120000Yes
2014-05-15B7371.55115000No
2015-01-26B7371.2281120No
2015-10-13B73701.319100-399Yes
2016-03-17B73701.429608-160No
2016-08-31B73701.1813466-94Yes
(pireps marked green are flown by you)

Route map